Ord, Nebraska
Current Conditions -  °F | °C
As of 11:53 AM on Saturday 22 Nov 2014 (Local Time) from KODX Reporting Station
Clear Clear  
Wind Chill: 56°   Ceiling: Unl
Heat Index: 56°   Visibility: 10mi
Dew Point: 30°   Wind: 9mph
Humidity: 37%   Direction: 190°S
Pressure: 29.66"   Gusts: NA
Location:  41.6°N, 98.93°W
Report Text: KODX 221753Z AUTO 19008KT 10SM CLR 13/M01 A2966 RMK AO2 PRESFR SLP051 I6001 T01331011 10133 21061 58030
Loading
Personal Weather Stations






























Interactive Weather Map New forecast layout! Learn more

10-Day Weather Forecast

Advertisements
Track Severe Weather on mobile